Time;durP1;ratioP1;P1;durP2;ratioP2;P2;SDS_P1;SDS_P2;PMS_P1;PMS_P2;Temp;Humidity;BMP_temperature;BMP_pressure;BME280_temperature;BME280_humidity;BME280_pressure;Samples;Min_cycle;Max_cycle;Signal;HPM_P1;HPM_P2
2023/09/23 00:01:33;;;;;;;0.85;0.73;;;13.70;99.90;;;;;;5129500;27;20428;-42
2023/09/23 00:03:59;;;;;;;0.93;0.85;;;13.70;99.90;;;;;;5141963;27;20533;-43
2023/09/23 00:06:24;;;;;;;1.10;0.80;;;13.70;99.90;;;;;;5147249;27;20021;-44
2023/09/23 00:08:50;;;;;;;1.10;1.00;;;13.70;99.90;;;;;;5128779;27;20022;-42
2023/09/23 00:11:16;;;;;;;0.70;0.70;;;13.60;99.90;;;;;;5080832;27;20044;-43
2023/09/23 00:13:42;;;;;;;0.88;0.80;;;13.60;99.90;;;;;;5121170;27;20741;-42
2023/09/23 00:16:09;;;;;;;0.77;0.77;;;13.60;99.90;;;;;;5072012;27;20033;-42
2023/09/23 00:18:35;;;;;;;0.80;0.70;;;13.60;99.90;;;;;;5124967;27;20517;-42
2023/09/23 00:21:02;;;;;;;0.88;0.82;;;13.50;99.90;;;;;;5067571;27;20123;-42
2023/09/23 00:23:34;;;;;;;0.80;0.77;;;13.50;99.90;;;;;;5125366;27;20101;-43
2023/09/23 00:26:03;;;;;;;1.45;0.82;;;13.50;99.90;;;;;;5064452;28;20036;-43
2023/09/23 00:28:32;;;;;;;0.68;0.60;;;13.50;99.90;;;;;;5130528;27;20025;-41
2023/09/23 00:31:10;;;;;;;1.25;0.70;;;13.40;99.90;;;;;;5064937;28;20094;-43
2023/09/23 00:33:37;;;;;;;1.20;0.60;;;13.40;99.90;;;;;;5131205;27;20439;-43
2023/09/23 00:36:13;;;;;;;0.73;0.70;;;13.30;99.90;;;;;;5064188;28;20056;-42
2023/09/23 00:38:40;;;;;;;0.90;0.82;;;13.30;99.90;;;;;;5131468;27;20090;-42
2023/09/23 00:41:06;;;;;;;1.00;0.90;;;13.20;99.90;;;;;;5064446;28;20031;-42
2023/09/23 00:43:35;;;;;;;1.48;0.90;;;13.20;99.90;;;;;;5128472;27;20256;-43
2023/09/23 00:46:06;;;;;;;0.88;0.70;;;13.20;99.90;;;;;;5044640;28;20029;-43
2023/09/23 00:48:44;;;;;;;0.70;0.70;;;13.20;99.90;;;;;;5116052;27;20061;-42
2023/09/23 00:51:10;;;;;;;1.10;1.00;;;13.10;99.90;;;;;;5064000;27;20032;-42
2023/09/23 00:53:39;;;;;;;1.63;0.90;;;13.10;99.90;;;;;;5116997;27;20037;-42
2023/09/23 00:56:05;;;;;;;0.80;0.80;;;13.10;99.90;;;;;;5075119;27;20800;-42
2023/09/23 00:58:31;;;;;;;1.08;0.80;;;13.10;99.90;;;;;;5105192;27;20109;-42
2023/09/23 01:01:01;;;;;;;0.73;0.73;;;13.10;99.90;;;;;;5088688;27;20139;-44
2023/09/23 01:03:30;;;;;;;2.05;0.90;;;13.10;99.90;;;;;;5094579;27;20507;-42
2023/09/23 01:06:14;;;;;;;1.27;1.00;;;13.20;99.90;;;;;;5097570;27;20073;-43
2023/09/23 01:08:42;;;;;;;0.82;0.80;;;13.20;99.90;;;;;;5096321;27;20015;-43
2023/09/23 01:11:07;;;;;;;0.90;0.90;;;13.20;99.90;;;;;;5078555;27;20127;-42
2023/09/23 01:13:33;;;;;;;0.80;0.80;;;13.20;99.90;;;;;;5084932;27;20099;-41
2023/09/23 01:15:59;;;;;;;0.80;0.80;;;13.20;99.90;;;;;;5110354;27;20028;-42
2023/09/23 01:18:28;;;;;;;1.23;0.90;;;13.20;99.90;;;;;;5071302;27;20842;-42
2023/09/23 01:21:00;;;;;;;1.10;1.00;;;13.10;99.90;;;;;;5102004;27;20023;-43
2023/09/23 01:23:26;;;;;;;1.10;1.00;;;13.10;99.90;;;;;;5162137;27;20093;-43
2023/09/23 01:25:51;;;;;;;1.20;1.10;;;13.10;99.90;;;;;;5110378;27;20457;-42
2023/09/23 01:28:18;;;;;;;1.83;1.10;;;13.00;99.90;;;;;;5164171;27;20719;-42
2023/09/23 01:30:45;;;;;;;2.35;1.13;;;13.00;99.90;;;;;;5109248;27;20523;-43
2023/09/23 01:33:14;;;;;;;1.52;1.42;;;12.90;99.90;;;;;;5169192;27;20386;-42
2023/09/23 01:35:41;;;;;;;1.48;1.38;;;12.90;99.90;;;;;;5102712;27;20701;-41
2023/09/23 01:38:07;;;;;;;1.77;1.67;;;12.90;99.90;;;;;;5168770;27;20026;-42
2023/09/23 01:40:36;;;;;;;2.35;1.88;;;12.90;99.90;;;;;;5102801;27;20031;-43
2023/09/23 01:43:02;;;;;;;2.05;1.85;;;12.90;99.90;;;;;;5169828;27;20050;-42
2023/09/23 01:45:28;;;;;;;2.30;2.10;;;12.90;99.90;;;;;;5111299;27;20708;-42
2023/09/23 01:47:57;;;;;;;2.40;2.20;;;12.90;99.90;;;;;;5161968;27;20029;-41
2023/09/23 01:50:24;;;;;;;2.47;2.28;;;12.80;99.90;;;;;;5122295;27;20843;-42
2023/09/23 01:52:50;;;;;;;2.80;2.50;;;12.80;99.90;;;;;;5151446;27;20046;-42
2023/09/23 01:55:17;;;;;;;2.70;2.50;;;12.80;99.90;;;;;;5135151;27;20067;-42
2023/09/23 01:57:43;;;;;;;3.30;3.00;;;12.80;99.90;;;;;;5138309;27;20029;-41
2023/09/23 02:00:17;;;;;;;3.13;2.83;;;12.80;99.90;;;;;;5147396;27;20105;-42
2023/09/23 02:02:46;;;;;;;2.78;2.58;;;12.90;99.90;;;;;;5131292;27;20030;-42
2023/09/23 02:05:12;;;;;;;3.67;3.38;;;12.90;99.90;;;;;;5152255;27;20034;-43
2023/09/23 02:07:39;;;;;;;3.85;3.22;;;13.00;99.90;;;;;;5119626;27;20030;-42
2023/09/23 02:10:08;;;;;;;4.43;3.80;;;13.00;99.90;;;;;;5134055;27;20029;-42
2023/09/23 02:12:37;;;;;;;3.88;3.58;;;13.00;99.90;;;;;;5122495;27;20141;-42
2023/09/23 02:15:04;;;;;;;5.40;3.88;;;13.10;99.90;;;;;;5069755;27;20080;-43
2023/09/23 02:17:30;;;;;;;3.70;3.40;;;13.10;99.90;;;;;;5123256;27;20017;-43
2023/09/23 02:19:57;;;;;;;6.55;4.13;;;13.10;99.90;;;;;;5064566;27;20024;-43
2023/09/23 02:22:22;;;;;;;4.93;4.47;;;13.10;99.90;;;;;;5126151;27;20060;-42
2023/09/23 02:24:49;;;;;;;4.60;4.20;;;13.20;99.90;;;;;;5063593;28;20120;-42
2023/09/23 02:27:16;;;;;;;5.03;4.63;;;13.20;99.90;;;;;;5127696;27;20146;-42
2023/09/23 02:29:41;;;;;;;7.28;5.30;;;13.20;99.90;;;;;;5062937;28;20029;-43
2023/09/23 02:32:07;;;;;;;6.07;5.55;;;13.20;99.90;;;;;;5125095;27;20809;-42
2023/09/23 02:34:32;;;;;;;5.97;5.45;;;13.20;99.90;;;;;;5065905;27;20065;-42
2023/09/23 02:36:58;;;;;;;5.82;5.32;;;13.30;99.90;;;;;;5110981;27;20470;-42
2023/09/23 02:39:24;;;;;;;6.40;5.80;;;13.30;99.90;;;;;;5079677;27;20487;-42
2023/09/23 02:41:50;;;;;;;5.95;5.45;;;13.30;99.90;;;;;;5097094;27;20457;-41
2023/09/23 02:44:19;;;;;;;6.75;6.07;;;13.30;99.90;;;;;;5092892;27;20040;-42
2023/09/23 02:46:54;;;;;;;8.23;7.43;;;13.30;99.90;;;;;;5086342;27;20053;-42
2023/09/23 02:49:20;;;;;;;9.18;7.85;;;13.30;99.90;;;;;;5098373;27;20469;-42
2023/09/23 02:51:46;;;;;;;8.07;7.38;;;13.30;99.90;;;;;;5080044;27;20016;-42
2023/09/23 02:54:17;;;;;;;7.05;6.45;;;13.30;99.90;;;;;;5111179;27;20719;-42
2023/09/23 02:56:46;;;;;;;7.20;6.50;;;13.30;99.90;;;;;;5070596;27;20021;-43
2023/09/23 02:59:15;;;;;;;6.15;5.65;;;13.30;99.90;;;;;;5118617;27;20361;-44
2023/09/23 03:01:45;;;;;;;6.55;5.95;;;13.30;99.90;;;;;;5070014;27;20018;-43
2023/09/23 03:04:19;;;;;;;6.80;6.20;;;13.30;99.90;;;;;;5120998;27;20043;-43
2023/09/23 03:06:50;;;;;;;6.25;5.72;;;13.40;99.90;;;;;;5069602;27;20428;-43
2023/09/23 03:09:32;;;;;;;7.40;6.70;;;13.30;99.90;;;;;;5123446;27;20029;-43
2023/09/23 03:12:00;;;;;;;7.53;6.85;;;13.30;99.90;;;;;;5159839;27;20113;-43
2023/09/23 03:14:38;;;;;;;7.25;6.57;;;13.40;99.90;;;;;;5109021;27;20084;-42
2023/09/23 03:17:04;;;;;;;7.32;6.72;;;13.30;99.90;;;;;;5159985;27;20022;-42
2023/09/23 03:19:32;;;;;;;7.00;6.30;;;13.30;99.90;;;;;;5108807;27;20049;-42
2023/09/23 03:21:58;;;;;;;7.65;6.95;;;13.30;99.90;;;;;;5056169;27;20033;-42
2023/09/23 03:24:25;;;;;;;7.05;6.40;;;13.30;99.90;;;;;;5100993;27;20117;-42
2023/09/23 03:26:53;;;;;;;7.60;6.88;;;13.30;99.90;;;;;;5167789;27;20465;-43
2023/09/23 03:29:19;;;;;;;7.60;6.80;;;13.30;99.90;;;;;;5099737;27;20150;-43
2023/09/23 03:31:45;;;;;;;7.80;7.10;;;13.30;99.90;;;;;;5167523;27;20046;-42
2023/09/23 03:34:13;;;;;;;8.75;7.63;;;13.30;99.90;;;;;;5105029;27;20035;-42
2023/09/23 03:36:42;;;;;;;10.15;8.05;;;13.30;99.90;;;;;;5164819;27;20097;-43
2023/09/23 03:39:09;;;;;;;9.70;8.68;;;13.30;99.90;;;;;;5113824;27;20028;-41
2023/09/23 03:41:37;;;;;;;9.75;8.77;;;13.30;99.90;;;;;;5154856;27;20014;-42
2023/09/23 03:44:04;;;;;;;9.13;8.18;;;13.30;99.90;;;;;;5125178;27;20033;-42
2023/09/23 03:46:30;;;;;;;11.02;9.90;;;13.30;99.90;;;;;;5143737;27;20029;-41
2023/09/23 03:48:57;;;;;;;9.55;8.55;;;13.30;99.90;;;;;;5139324;27;20029;-41
2023/09/23 03:51:22;;;;;;;10.27;9.15;;;13.30;99.90;;;;;;5130448;27;20030;-42
2023/09/23 03:53:54;;;;;;;9.82;8.82;;;13.40;99.90;;;;;;5152356;27;20062;-42
2023/09/23 03:56:24;;;;;;;10.20;9.18;;;13.30;99.90;;;;;;5121449;27;20512;-43
2023/09/23 03:58:55;;;;;;;9.85;8.57;;;13.30;99.90;;;;;;5157622;27;20044;-42
2023/09/23 04:01:23;;;;;;;10.40;9.40;;;13.30;99.90;;;;;;5113313;27;20089;-42
2023/09/23 04:03:52;;;;;;;10.27;9.27;;;13.30;99.90;;;;;;5159879;27;20116;-43
2023/09/23 04:06:18;;;;;;;12.02;9.88;;;13.30;99.90;;;;;;5107279;27;20113;-42
2023/09/23 04:08:44;;;;;;;10.00;9.00;;;13.30;99.90;;;;;;5159485;27;20022;-43
2023/09/23 04:11:10;;;;;;;9.88;8.98;;;13.40;99.90;;;;;;5158189;27;20087;-43
2023/09/23 04:13:37;;;;;;;12.38;10.55;;;13.30;99.90;;;;;;5156817;27;20097;-43
2023/09/23 04:16:03;;;;;;;10.73;9.63;;;13.30;99.90;;;;;;5127234;27;20028;-42
2023/09/23 04:18:32;;;;;;;10.15;9.15;;;13.40;99.90;;;;;;5061476;27;20024;-43
2023/09/23 04:21:04;;;;;;;10.85;9.30;;;13.30;99.90;;;;;;5127540;27;20026;-44
2023/09/23 04:23:31;;;;;;;10.95;9.68;;;13.30;99.90;;;;;;5061120;28;20088;-43
2023/09/23 04:25:57;;;;;;;12.43;11.13;;;13.30;99.90;;;;;;5123966;27;20149;-42
2023/09/23 04:28:23;;;;;;;11.30;10.07;;;13.30;99.90;;;;;;5062912;27;20039;-42
2023/09/23 04:30:57;;;;;;;10.77;9.55;;;13.30;99.90;;;;;;5111162;27;20050;-41
2023/09/23 04:33:26;;;;;;;12.75;11.40;;;13.30;99.90;;;;;;5070241;27;20025;-42
2023/09/23 04:35:51;;;;;;;11.88;10.13;;;13.30;99.90;;;;;;5106059;27;20066;-42
2023/09/23 04:38:18;;;;;;;10.43;9.43;;;13.30;99.90;;;;;;5081920;27;20028;-42
2023/09/23 04:40:43;;;;;;;11.57;10.38;;;13.30;99.90;;;;;;5092309;27;20018;-43
2023/09/23 04:43:10;;;;;;;11.77;10.55;;;13.30;99.90;;;;;;5095356;27;20511;-42
2023/09/23 04:45:36;;;;;;;12.40;10.68;;;13.30;99.90;;;;;;5079503;27;20760;-42
2023/09/23 04:48:04;;;;;;;12.07;10.23;;;13.30;99.90;;;;;;5107218;27;20059;-42
2023/09/23 04:50:29;;;;;;;11.77;10.68;;;13.30;99.90;;;;;;5071090;27;20028;-42
2023/09/23 04:52:55;;;;;;;12.73;11.43;;;13.30;99.90;;;;;;5124101;27;20032;-43
2023/09/23 04:55:22;;;;;;;11.45;9.90;;;13.20;99.90;;;;;;5071196;27;20034;-42
2023/09/23 04:57:50;;;;;;;13.70;12.30;;;13.30;99.90;;;;;;5124256;27;20021;-42
2023/09/23 05:00:16;;;;;;;13.88;11.60;;;13.30;99.90;;;;;;5064878;27;20032;-43
2023/09/23 05:02:42;;;;;;;11.35;9.70;;;13.20;99.90;;;;;;5129134;27;20072;-43
2023/09/23 05:05:09;;;;;;;10.10;9.10;;;13.20;99.90;;;;;;5064042;28;20037;-43
2023/09/23 05:07:38;;;;;;;12.07;10.95;;;13.20;99.90;;;;;;5130687;27;20033;-42
2023/09/23 05:10:05;;;;;;;12.88;10.73;;;13.20;99.90;;;;;;5094294;27;20415;-43
2023/09/23 05:12:34;;;;;;;11.40;9.95;;;13.20;99.90;;;;;;5104986;27;20040;-40
2023/09/23 05:15:00;;;;;;;11.23;10.13;;;13.20;99.90;;;;;;5044107;28;20036;-43
2023/09/23 05:17:30;;;;;;;11.82;10.63;;;13.20;99.90;;;;;;5111769;27;20053;-43
2023/09/23 05:19:56;;;;;;;11.40;9.95;;;13.20;99.90;;;;;;5073410;27;20036;-43
2023/09/23 05:22:22;;;;;;;11.20;9.50;;;13.20;99.90;;;;;;5105520;27;20419;-42
2023/09/23 05:24:50;;;;;;;11.02;9.00;;;13.20;99.90;;;;;;5086733;27;20033;-43
2023/09/23 05:27:16;;;;;;;9.40;8.48;;;13.20;99.90;;;;;;5094172;27;20481;-42
2023/09/23 05:29:43;;;;;;;8.88;7.97;;;13.20;99.90;;;;;;5098811;27;20073;-43
2023/09/23 05:32:12;;;;;;;8.65;7.85;;;13.20;99.90;;;;;;5080821;27;20056;-43
2023/09/23 05:34:39;;;;;;;8.50;7.68;;;13.20;99.90;;;;;;5109505;27;20040;-42
2023/09/23 05:37:06;;;;;;;8.27;7.47;;;13.20;99.90;;;;;;5070969;27;20028;-43
2023/09/23 05:39:34;;;;;;;7.90;7.10;;;13.20;99.90;;;;;;5121190;27;20032;-42
2023/09/23 05:42:01;;;;;;;7.90;7.13;;;13.20;99.90;;;;;;5071005;27;20029;-43
2023/09/23 05:44:27;;;;;;;8.07;7.10;;;13.20;99.90;;;;;;5122662;27;20040;-42
2023/09/23 05:46:53;;;;;;;7.22;6.53;;;13.20;99.90;;;;;;5066930;27;20024;-42
2023/09/23 05:49:18;;;;;;;8.18;6.30;;;13.20;99.90;;;;;;5124695;27;20032;-42
2023/09/23 05:51:45;;;;;;;7.88;7.03;;;13.20;99.90;;;;;;5064200;28;20020;-43
2023/09/23 05:54:11;;;;;;;7.80;6.45;;;13.20;99.90;;;;;;5129801;27;20033;-43
2023/09/23 05:56:37;;;;;;;6.45;5.78;;;13.20;99.90;;;;;;5063571;28;20024;-42
2023/09/23 05:59:05;;;;;;;8.23;6.10;;;13.20;99.90;;;;;;5125591;27;20050;-44
2023/09/23 06:01:30;;;;;;;6.15;5.55;;;13.20;99.90;;;;;;5063651;27;20027;-43
2023/09/23 06:03:59;;;;;;;6.47;5.22;;;13.10;99.90;;;;;;5114520;27;20034;-43
2023/09/23 06:06:25;;;;;;;7.63;6.00;;;13.10;99.90;;;;;;5076325;27;20033;-43
2023/09/23 06:08:53;;;;;;;6.80;4.85;;;13.20;99.90;;;;;;5102740;27;20018;-42
2023/09/23 06:11:19;;;;;;;6.10;4.38;;;13.20;99.90;;;;;;5086473;27;20035;-42
2023/09/23 06:13:45;;;;;;;4.38;3.95;;;13.20;99.90;;;;;;5090598;27;20195;-42
2023/09/23 06:16:10;;;;;;;5.20;4.70;;;13.20;99.90;;;;;;5101132;27;20036;-42
2023/09/23 06:18:36;;;;;;;4.65;4.25;;;13.30;99.90;;;;;;5076664;27;20065;-42
2023/09/23 06:21:03;;;;;;;5.40;4.43;;;13.30;99.90;;;;;;5114998;27;20357;-42
2023/09/23 06:23:29;;;;;;;4.60;4.10;;;13.30;99.90;;;;;;5070406;27;20022;-44
2023/09/23 06:25:57;;;;;;;5.93;4.55;;;13.30;99.90;;;;;;5121572;27;20028;-41
2023/09/23 06:28:23;;;;;;;7.10;5.10;;;13.30;99.90;;;;;;5070289;27;20031;-42
2023/09/23 06:30:49;;;;;;;6.57;4.88;;;13.30;99.90;;;;;;5122174;27;20040;-42
2023/09/23 06:33:15;;;;;;;5.15;4.65;;;13.30;99.90;;;;;;5062575;28;20024;-43
2023/09/23 06:35:40;;;;;;;4.97;4.47;;;13.30;99.90;;;;;;5129669;27;20044;-42
2023/09/23 06:38:07;;;;;;;10.35;4.40;;;13.40;99.90;;;;;;5062046;28;20530;-42
2023/09/23 06:40:35;;;;;;;6.25;4.90;;;13.40;99.90;;;;;;5128520;27;20030;-43
2023/09/23 06:43:07;;;;;;;4.90;3.95;;;13.50;99.90;;;;;;5062702;28;20021;-43
2023/09/23 06:45:33;;;;;;;5.18;4.55;;;13.50;99.90;;;;;;5123495;27;20542;-42
2023/09/23 06:47:59;;;;;;;6.38;4.47;;;13.50;99.90;;;;;;5067601;27;20032;-41
2023/09/23 06:50:25;;;;;;;6.03;4.90;;;13.50;99.90;;;;;;5110151;27;20026;-42
2023/09/23 06:52:50;;;;;;;5.65;4.95;;;13.50;99.90;;;;;;5080754;27;20815;-42
2023/09/23 06:55:16;;;;;;;6.82;4.88;;;13.50;99.90;;;;;;5095852;27;20627;-42
2023/09/23 06:57:42;;;;;;;6.15;5.32;;;13.60;99.90;;;;;;5094999;27;20028;-42
2023/09/23 07:02:54;;;;;;;7.95;6.20;;;13.60;99.90;;;;;;5077773;27;20698;-41
2023/09/23 07:05:22;;;;;;;6.15;5.57;;;13.70;99.90;;;;;;5071866;27;20045;-42
2023/09/23 07:07:48;;;;;;;6.50;5.85;;;13.60;99.90;;;;;;5105652;27;20115;-42
2023/09/23 07:10:16;;;;;;;5.40;4.78;;;13.60;99.90;;;;;;5073184;27;20481;-43
2023/09/23 07:12:42;;;;;;;6.25;5.28;;;13.70;99.90;;;;;;5116219;27;20421;-43
2023/09/23 07:15:08;;;;;;;5.70;5.20;;;13.70;99.90;;;;;;5068398;27;20476;-43
2023/09/23 07:17:33;;;;;;;4.95;4.55;;;13.70;99.90;;;;;;5122184;27;20021;-43
2023/09/23 07:19:59;;;;;;;6.65;4.75;;;13.80;99.90;;;;;;5066001;27;20031;-43
2023/09/23 07:22:27;;;;;;;6.28;4.93;;;13.80;99.90;;;;;;5124206;27;20452;-43
2023/09/23 07:24:53;;;;;;;5.25;4.75;;;13.90;99.90;;;;;;5062721;28;20060;-41
2023/09/23 07:27:18;;;;;;;5.00;4.00;;;13.90;99.90;;;;;;5128438;27;20018;-41
2023/09/23 07:29:44;;;;;;;5.07;3.70;;;13.90;99.90;;;;;;5062027;28;20096;-43
2023/09/23 07:32:10;;;;;;;5.10;4.60;;;14.00;99.90;;;;;;5125478;27;20077;-42
2023/09/23 07:34:35;;;;;;;5.80;4.65;;;14.00;99.90;;;;;;5064638;27;20491;-42
2023/09/23 07:37:01;;;;;;;5.93;4.30;;;14.00;99.90;;;;;;5110361;27;20094;-42
2023/09/23 07:39:28;;;;;;;5.43;4.18;;;14.00;99.90;;;;;;5078108;27;20065;-43
2023/09/23 07:41:54;;;;;;;3.85;3.55;;;14.10;99.90;;;;;;5097753;27;20022;-41
2023/09/23 07:44:20;;;;;;;4.28;3.92;;;14.10;99.90;;;;;;5090365;27;20040;-42
2023/09/23 07:46:45;;;;;;;4.00;3.50;;;14.10;99.90;;;;;;5085095;27;20019;-43
2023/09/23 07:49:11;;;;;;;5.63;4.82;;;14.10;99.90;;;;;;5103609;27;20119;-42
2023/09/23 07:51:37;;;;;;;6.30;4.10;;;14.20;99.90;;;;;;5070442;27;20009;-42
2023/09/23 07:54:03;;;;;;;5.18;3.88;;;14.20;99.90;;;;;;5117767;27;20017;-42
2023/09/23 07:56:28;;;;;;;4.53;3.80;;;14.20;99.90;;;;;;5068588;27;20029;-42
2023/09/23 07:58:54;;;;;;;3.40;3.10;;;14.20;99.90;;;;;;5120752;27;20028;-42
2023/09/23 08:01:19;;;;;;;5.18;3.80;;;14.20;99.90;;;;;;5062406;27;20085;-41
2023/09/23 08:03:45;;;;;;;3.58;3.28;;;14.30;99.90;;;;;;5125408;27;20020;-41
2023/09/23 08:06:20;;;;;;;4.72;3.35;;;14.40;99.90;;;;;;5060601;28;20021;-43
2023/09/23 08:08:45;;;;;;;3.47;3.17;;;14.50;99.90;;;;;;5128202;27;20022;-42
2023/09/23 08:11:11;;;;;;;4.78;3.92;;;14.50;99.90;;;;;;5128933;27;20537;-43
2023/09/23 08:13:37;;;;;;;5.28;3.30;;;14.60;99.90;;;;;;5100247;27;20366;-42
2023/09/23 08:16:05;;;;;;;4.30;3.90;;;14.70;99.90;;;;;;5166940;27;20030;-42
2023/09/23 08:18:37;;;;;;;4.07;3.67;;;14.70;99.90;;;;;;5111788;27;20077;-42
2023/09/23 08:21:03;;;;;;;4.70;3.35;;;14.70;99.90;;;;;;5159753;27;20752;-42
2023/09/23 08:23:28;;;;;;;5.07;4.57;;;14.70;99.90;;;;;;5122563;27;20017;-42
2023/09/23 08:25:55;;;;;;;4.55;3.80;;;14.70;99.90;;;;;;5149656;27;20549;-43
2023/09/23 08:28:21;;;;;;;4.97;3.47;;;14.80;99.90;;;;;;5138760;27;20032;-42
2023/09/23 08:30:47;;;;;;;3.60;2.97;;;14.90;99.90;;;;;;5136865;27;20417;-42
2023/09/23 08:33:16;;;;;;;4.13;3.28;;;15.10;99.90;;;;;;5151430;27;20023;-42
2023/09/23 08:35:42;;;;;;;3.20;2.90;;;15.20;99.90;;;;;;5125806;27;20010;-43
2023/09/23 08:38:08;;;;;;;5.80;3.38;;;15.30;99.90;;;;;;5162736;27;20093;-42
2023/09/23 08:40:36;;;;;;;5.70;3.63;;;15.40;99.90;;;;;;5112033;27;20022;-43
2023/09/23 08:43:05;;;;;;;4.38;2.70;;;15.40;99.90;;;;;;5163631;27;20033;-43
2023/09/23 08:45:32;;;;;;;3.22;2.92;;;15.50;99.90;;;;;;5111633;27;20033;-47
2023/09/23 08:47:58;;;;;;;3.67;3.22;;;15.50;99.90;;;;;;5166153;27;20018;-43
2023/09/23 08:50:25;;;;;;;3.92;3.38;;;15.50;99.90;;;;;;5108746;27;20809;-43
2023/09/23 08:52:51;;;;;;;6.30;3.88;;;15.50;99.90;;;;;;5170177;27;20018;-42
2023/09/23 08:55:18;;;;;;;3.13;2.78;;;15.50;99.90;;;;;;5103273;27;20032;-42
2023/09/23 08:57:50;;;;;;;4.40;3.13;;;15.60;99.90;;;;;;5170785;27;20018;-42
2023/09/23 09:00:18;;;;;;;3.08;2.70;;;15.60;99.90;;;;;;5103135;27;20440;-43
2023/09/23 09:02:44;;;;;;;3.30;2.40;;;15.60;99.90;;;;;;5170430;27;20022;-43
2023/09/23 09:05:14;;;;;;;2.95;2.70;;;15.70;99.90;;;;;;5111305;27;20059;-43
2023/09/23 09:07:39;;;;;;;4.63;3.30;;;15.70;99.90;;;;;;5165192;27;20030;-42
2023/09/23 09:10:08;;;;;;;3.90;3.20;;;15.70;99.90;;;;;;5138508;27;20018;-43
2023/09/23 09:12:37;;;;;;;3.20;2.55;;;15.70;99.90;;;;;;5171305;27;20121;-42
2023/09/23 09:15:05;;;;;;;4.13;2.85;;;15.70;99.90;;;;;;5131351;27;20028;-42
2023/09/23 09:17:33;;;;;;;2.97;2.13;;;15.70;99.90;;;;;;5144003;27;20091;-42
2023/09/23 09:20:09;;;;;;;2.85;2.40;;;15.80;99.90;;;;;;5141977;27;20020;-42
2023/09/23 09:22:36;;;;;;;3.28;2.25;;;15.80;99.90;;;;;;5138868;27;20022;-44
2023/09/23 09:25:03;;;;;;;4.47;2.67;;;15.80;99.90;;;;;;5147583;27;20377;-43
2023/09/23 09:27:29;;;;;;;2.45;2.00;;;15.70;99.90;;;;;;5127279;27;20129;-43
2023/09/23 09:29:58;;;;;;;3.33;2.00;;;15.70;99.90;;;;;;5159591;27;20097;-43
2023/09/23 09:32:29;;;;;;;3.65;2.20;;;15.70;99.90;;;;;;5115182;27;20049;-44
2023/09/23 09:35:00;;;;;;;2.83;2.03;;;15.70;99.90;;;;;;5161660;27;20033;-42
2023/09/23 09:37:27;;;;;;;3.70;2.40;;;15.70;99.90;;;;;;5109711;27;20473;-43
2023/09/23 09:39:57;;;;;;;3.70;2.55;;;15.70;99.90;;;;;;5162632;27;20745;-42
2023/09/23 09:42:30;;;;;;;6.03;2.90;;;15.70;99.90;;;;;;5109670;27;20033;-42
2023/09/23 09:44:57;;;;;;;2.80;2.00;;;15.70;99.90;;;;;;5162524;27;20053;-42
2023/09/23 09:47:23;;;;;;;7.45;2.15;;;15.70;99.90;;;;;;5110454;27;20020;-42
2023/09/23 09:49:52;;;;;;;12.50;3.25;;;15.80;99.90;;;;;;5168955;27;20026;-42
2023/09/23 09:52:22;;;;;;;2.33;2.13;;;15.80;99.90;;;;;;5102297;27;20022;-42
2023/09/23 09:55:01;;;;;;;3.80;2.20;;;15.90;99.90;;;;;;5170310;27;20018;-42
2023/09/23 09:57:28;;;;;;;6.03;2.45;;;15.90;99.90;;;;;;5102374;27;20022;-43
2023/09/23 09:59:59;;;;;;;4.47;3.20;;;15.90;99.90;;;;;;5169675;27;20467;-43
2023/09/23 10:02:28;;;;;;;2.97;2.50;;;15.90;99.90;;;;;;5102715;27;20422;-42
2023/09/23 10:04:53;;;;;;;4.85;2.97;;;15.90;99.90;;;;;;5168922;27;20177;-43
2023/09/23 10:07:45;;;;;;;3.88;2.05;;;15.90;99.90;;;;;;5105793;27;20823;-43
2023/09/23 10:10:13;;;;;;;2.00;1.80;;;16.00;99.90;;;;;;5062822;27;20022;-43
2023/09/23 10:12:48;;;;;;;2.88;1.90;;;16.00;99.90;;;;;;5102356;27;20532;-44
2023/09/23 10:15:24;;;;;;;2.03;1.55;;;16.00;99.90;;;;;;5169268;27;20019;-42
2023/09/23 10:17:54;;;;;;;2.50;2.22;;;16.10;99.90;;;;;;5102220;27;20361;-43
2023/09/23 10:20:23;;;;;;;3.92;2.08;;;16.20;99.90;;;;;;5168847;27;20426;-43
2023/09/23 10:22:54;;;;;;;5.97;2.55;;;16.20;99.90;;;;;;5107941;27;20064;-43
2023/09/23 10:25:20;;;;;;;3.50;2.25;;;16.20;99.90;;;;;;5166597;27;20110;-42
2023/09/23 10:27:56;;;;;;;3.22;2.20;;;16.30;99.90;;;;;;5117579;27;20016;-42
2023/09/23 10:30:22;;;;;;;2.92;1.90;;;16.30;99.90;;;;;;5161599;27;20113;-42
2023/09/23 10:32:49;;;;;;;3.72;2.05;;;16.40;99.90;;;;;;5122447;27;20127;-42
2023/09/23 10:35:26;;;;;;;5.03;1.95;;;16.40;99.90;;;;;;5148795;27;20470;-42
2023/09/23 10:37:52;;;;;;;3.97;1.70;;;16.50;99.90;;;;;;5127740;27;20017;-42
2023/09/23 10:40:19;;;;;;;4.18;1.85;;;16.70;99.90;;;;;;5142399;27;20093;-43
2023/09/23 10:42:49;;;;;;;1.90;1.70;;;16.70;99.90;;;;;;5141197;27;20466;-43
2023/09/23 10:45:19;;;;;;;2.95;1.88;;;16.90;99.90;;;;;;5132643;27;20037;-42
2023/09/23 10:47:45;;;;;;;5.68;2.13;;;16.90;99.90;;;;;;5148167;27;20019;-42
2023/09/23 10:50:10;;;;;;;4.18;2.20;;;17.00;99.90;;;;;;5123021;27;20030;-43
2023/09/23 10:52:37;;;;;;;2.40;1.98;;;17.00;99.90;;;;;;5160527;27;20029;-42
2023/09/23 10:55:03;;;;;;;3.50;2.10;;;17.00;99.90;;;;;;5097139;27;20022;-42
2023/09/23 10:57:29;;;;;;;6.55;2.30;;;17.00;99.90;;;;;;5160678;27;20116;-42
2023/09/23 10:59:55;;;;;;;2.97;1.85;;;17.00;99.90;;;;;;5108361;27;20105;-43
2023/09/23 11:02:24;;;;;;;4.72;2.10;;;17.00;99.90;;;;;;5167090;27;20026;-42
2023/09/23 11:04:53;;;;;;;3.38;2.30;;;17.20;99.90;;;;;;5104008;27;20038;-43
2023/09/23 11:07:20;;;;;;;3.80;2.50;;;17.20;99.90;;;;;;5166485;27;20066;-42
2023/09/23 11:09:46;;;;;;;4.90;2.40;;;17.20;99.90;;;;;;5101652;27;20029;-42
2023/09/23 11:12:18;;;;;;;2.72;1.67;;;17.20;99.90;;;;;;5066540;27;20513;-42
2023/09/23 11:14:48;;;;;;;5.28;2.20;;;17.30;99.90;;;;;;5128254;27;20023;-42
2023/09/23 11:17:29;;;;;;;4.40;2.15;;;17.40;99.90;;;;;;5061913;27;20534;-42
2023/09/23 11:19:59;;;;;;;2.88;1.83;;;17.30;99.90;;;;;;5129088;27;20026;-42
2023/09/23 11:22:25;;;;;;;5.47;2.83;;;17.30;99.90;;;;;;5062598;28;20021;-42
2023/09/23 11:24:51;;;;;;;2.55;2.10;;;17.20;99.90;;;;;;5121166;27;20041;-42
2023/09/23 11:27:17;;;;;;;4.75;2.60;;;17.20;99.90;;;;;;5068393;27;20027;-41
2023/09/23 11:29:45;;;;;;;2.92;1.95;;;17.10;99.90;;;;;;5107447;27;20022;-42
2023/09/23 11:32:11;;;;;;;3.72;2.40;;;17.00;99.90;;;;;;5080006;27;20056;-42
2023/09/23 11:34:36;;;;;;;3.22;2.40;;;17.00;99.90;;;;;;5095341;27;20096;-42
2023/09/23 11:37:04;;;;;;;4.72;2.15;;;16.80;99.90;;;;;;5093084;27;20145;-42
2023/09/23 11:39:35;;;;;;;3.20;2.30;;;16.70;99.90;;;;;;5082994;27;20032;-42
2023/09/23 11:42:02;;;;;;;2.83;1.90;;;16.60;99.90;;;;;;5102236;27;20537;-42
2023/09/23 11:44:28;;;;;;;5.50;2.58;;;16.60;99.90;;;;;;5073518;27;20384;-42
2023/09/23 11:46:54;;;;;;;3.65;2.13;;;16.50;99.90;;;;;;5115421;27;20016;-42
2023/09/23 11:49:20;;;;;;;3.63;2.08;;;16.50;99.90;;;;;;5067957;27;20029;-42
2023/09/23 11:51:46;;;;;;;4.18;2.50;;;16.50;99.90;;;;;;5120830;27;20020;-43
2023/09/23 11:54:11;;;;;;;2.85;1.70;;;16.60;99.90;;;;;;5066512;27;20025;-43
2023/09/23 11:56:37;;;;;;;1.48;1.38;;;16.70;99.90;;;;;;5122283;27;20024;-43
2023/09/23 11:59:03;;;;;;;2.08;1.88;;;16.80;99.90;;;;;;5059786;28;20052;-43
2023/09/23 12:01:28;;;;;;;2.42;1.63;;;16.80;99.90;;;;;;5128296;27;20038;-43
2023/09/23 12:03:58;;;;;;;2.78;1.80;;;16.90;99.90;;;;;;5060984;28;20028;-43
2023/09/23 12:06:29;;;;;;;3.13;1.85;;;16.90;99.90;;;;;;5127036;27;20022;-43
2023/09/23 12:08:55;;;;;;;2.17;1.50;;;16.90;99.90;;;;;;5042053;28;20060;-43
2023/09/23 12:11:21;;;;;;;3.38;1.80;;;17.00;99.90;;;;;;5121629;27;20475;-43
2023/09/23 12:13:47;;;;;;;2.28;1.40;;;17.00;99.90;;;;;;5061743;28;20107;-43
2023/09/23 12:16:16;;;;;;;1.90;1.50;;;17.00;99.90;;;;;;5104242;27;20126;-43
2023/09/23 12:18:41;;;;;;;1.80;1.27;;;17.00;99.90;;;;;;5081758;27;20028;-43
2023/09/23 12:21:07;;;;;;;2.05;1.05;;;17.10;99.90;;;;;;5092332;27;20022;-43
2023/09/23 12:23:36;;;;;;;3.00;1.30;;;17.10;99.90;;;;;;5095712;27;20059;-43
2023/09/23 12:26:05;;;;;;;2.05;1.30;;;17.10;99.90;;;;;;5080734;27;20676;-43
2023/09/23 12:28:31;;;;;;;2.55;1.13;;;17.20;99.90;;;;;;5104344;27;20020;-42
2023/09/23 12:30:57;;;;;;;1.95;1.10;;;17.30;99.90;;;;;;5069829;27;20044;-44
2023/09/23 12:33:27;;;;;;;2.30;1.30;;;17.30;99.90;;;;;;5117650;27;20020;-43
2023/09/23 12:35:52;;;;;;;1.75;1.20;;;17.40;99.90;;;;;;5068262;27;20560;-42
2023/09/23 12:38:20;;;;;;;2.78;1.20;;;17.50;99.90;;;;;;5119641;27;20068;-43
2023/09/23 12:40:49;;;;;;;2.90;1.20;;;17.50;99.90;;;;;;5066000;27;20105;-43
2023/09/23 12:43:14;;;;;;;1.42;1.20;;;17.60;99.90;;;;;;5115333;27;20089;-43
2023/09/23 12:45:41;;;;;;;2.58;1.38;;;17.60;99.90;;;;;;5061184;28;20067;-42
2023/09/23 12:48:09;;;;;;;2.47;1.30;;;17.70;99.90;;;;;;5126759;27;20108;-43
2023/09/23 12:50:35;;;;;;;2.00;1.40;;;17.80;99.90;;;;;;5061263;28;20032;-43